Time;durP1;ratioP1;P1;durP2;ratioP2;P2;SDS_P1;SDS_P2;PMS_P1;PMS_P2;Temp;Humidity;BMP_temperature;BMP_pressure;BME280_temperature;BME280_humidity;BME280_pressure;Samples;Min_cycle;Max_cycle;Signal;HPM_P1;HPM_P2
2023/08/14 00:04:01;;;;;;;;;;;;;;;19.05;100.00;95882.34;10525579;28;2012;-73
2023/08/14 00:09:10;;;;;;;;;;;;;;;19.05;100.00;95885.09;10520928;28;2094;-74
2023/08/14 00:14:16;;;;;;;;;;;;;;;18.94;100.00;95886.53;10529652;28;1954;-73
2023/08/14 00:19:27;;;;;;;;;;;;;;;18.96;100.00;95878.84;10529445;28;1933;-74
2023/08/14 00:24:34;;;;;;;;;;;;;;;18.90;100.00;95879.03;10530579;28;2050;-72
2023/08/14 00:29:40;;;;;;;;;;;;;;;18.85;100.00;95859.34;10537442;28;1902;-73
2023/08/14 00:34:44;;;;;;;;;;;;;;;18.76;100.00;95856.63;10525410;28;1968;-74
2023/08/14 00:39:49;;;;;;;;;;;;;;;18.75;100.00;95846.06;10549414;28;2073;-74
2023/08/14 00:44:54;;;;;;;;;;;;;;;18.60;100.00;95839.97;10530041;28;4552;-72
2023/08/14 00:49:57;;;;;;;;;;;;;;;18.52;100.00;95842.72;10539792;28;2004;-72
2023/08/14 00:55:02;;;;;;;;;;;;;;;18.46;100.00;95838.56;10528908;28;2356;-72
2023/08/14 01:00:06;;;;;;;;;;;;;;;18.33;100.00;95830.25;10529036;28;2068;-72
2023/08/14 01:05:10;;;;;;;;;;;;;;;18.29;100.00;95823.84;10526448;28;1914;-73
2023/08/14 01:10:13;;;;;;;;;;;;;;;18.30;100.00;95825.44;10527238;28;1917;-71
2023/08/14 01:15:17;;;;;;;;;;;;;;;18.23;100.00;95836.00;10523997;28;2003;-73
2023/08/14 01:20:20;;;;;;;;;;;;;;;18.25;100.00;95825.59;10546021;28;1932;-72
2023/08/14 01:25:24;;;;;;;;;;;;;;;18.19;100.00;95818.72;10522772;28;1991;-73
2023/08/14 01:30:27;;;;;;;;;;;;;;;18.12;100.00;95807.50;10546993;28;1971;-73
2023/08/14 01:35:38;;;;;;;;;;;;;;;18.10;100.00;95805.13;10528798;28;2281;-72
2023/08/14 01:40:44;;;;;;;;;;;;;;;18.03;100.00;95804.00;10536013;28;4504;-71
2023/08/14 01:45:48;;;;;;;;;;;;;;;17.97;100.00;95797.13;10535071;28;2815;-73
2023/08/14 01:50:52;;;;;;;;;;;;;;;17.89;100.00;95797.94;10537651;28;2003;-72
2023/08/14 01:56:01;;;;;;;;;;;;;;;17.83;100.00;95802.72;10534250;28;1993;-73
2023/08/14 02:01:05;;;;;;;;;;;;;;;17.81;100.00;95811.22;10532819;28;1881;-74
2023/08/14 02:06:09;;;;;;;;;;;;;;;17.80;100.00;95804.16;10536240;28;1945;-74
2023/08/14 02:11:15;;;;;;;;;;;;;;;17.82;100.00;95804.66;10533844;28;1909;-74
2023/08/14 02:16:21;;;;;;;;;;;;;;;17.83;100.00;95811.69;10538326;28;1923;-74
2023/08/14 02:21:25;;;;;;;;;;;;;;;17.86;100.00;95817.59;10538121;28;1847;-75
2023/08/14 02:26:28;;;;;;;;;;;;;;;17.86;100.00;95820.31;10534320;28;1850;-74
2023/08/14 02:31:32;;;;;;;;;;;;;;;17.92;100.00;95825.28;10537492;28;1964;-74
2023/08/14 02:36:36;;;;;;;;;;;;;;;17.88;100.00;95820.78;10548425;27;1938;-74
2023/08/14 02:41:39;;;;;;;;;;;;;;;17.91;100.00;95823.69;10533328;28;5706;-75
2023/08/14 02:46:43;;;;;;;;;;;;;;;17.96;100.00;95830.88;10537593;28;1802;-75
2023/08/14 02:51:46;;;;;;;;;;;;;;;17.97;100.00;95832.47;10555432;27;1902;-74
2023/08/14 02:56:50;;;;;;;;;;;;;;;17.96;100.00;95833.59;10529651;28;1886;-73
2023/08/14 03:01:59;;;;;;;;;;;;;;;17.97;100.00;95835.19;10535469;28;1882;-73
2023/08/14 03:07:06;;;;;;;;;;;;;;;17.95;100.00;95829.28;10531163;28;1955;-72
2023/08/14 03:12:09;;;;;;;;;;;;;;;17.97;100.00;95846.88;10537856;28;1971;-73
2023/08/14 03:17:13;;;;;;;;;;;;;;;17.92;100.00;95846.22;10535833;28;1993;-73
2023/08/14 03:22:17;;;;;;;;;;;;;;;17.84;100.00;95828.78;10534707;28;1839;-73
2023/08/14 03:27:27;;;;;;;;;;;;;;;17.81;100.00;95819.38;10534155;28;1855;-73
2023/08/14 03:32:33;;;;;;;;;;;;;;;17.81;100.00;95807.66;10527704;28;1980;-73
2023/08/14 03:37:38;;;;;;;;;;;;;;;17.77;100.00;95812.94;10512387;28;2429;-73
2023/08/14 03:42:41;;;;;;;;;;;;;;;17.85;100.00;95807.84;10546735;28;4611;-74
2023/08/14 03:47:44;;;;;;;;;;;;;;;17.88;100.00;95805.28;10533566;28;1958;-73
2023/08/14 03:52:48;;;;;;;;;;;;;;;17.95;100.00;95808.34;10530663;28;1902;-74
2023/08/14 03:57:52;;;;;;;;;;;;;;;18.11;100.00;95795.03;10532197;28;1878;-73
2023/08/14 04:02:57;;;;;;;;;;;;;;;18.07;100.00;95804.97;10537401;28;1980;-72
2023/08/14 04:08:01;;;;;;;;;;;;;;;18.17;100.00;95801.91;10532686;28;1898;-74
2023/08/14 04:13:11;;;;;;;;;;;;;;;18.32;100.00;95790.56;10538698;28;1973;-74
2023/08/14 04:18:22;;;;;;;;;;;;;;;18.40;100.00;95788.13;10532233;28;1878;-74
2023/08/14 04:23:24;;;;;;;;;;;;;;;18.52;100.00;95785.56;10528719;28;1869;-73
2023/08/14 04:28:29;;;;;;;;;;;;;;;18.55;100.00;95774.00;10534940;28;1916;-73
2023/08/14 04:33:34;;;;;;;;;;;;;;;18.74;100.00;95774.47;10533350;28;2261;-74
2023/08/14 04:38:41;;;;;;;;;;;;;;;18.95;100.00;95766.38;10525154;28;1921;-73
2023/08/14 04:43:43;;;;;;;;;;;;;;;19.12;100.00;95773.66;10527953;28;4533;-73
2023/08/14 04:48:48;;;;;;;;;;;;;;;19.47;100.00;95766.13;10529931;28;1874;-74
2023/08/14 04:53:51;;;;;;;;;;;;;;;19.73;100.00;95765.97;10528015;28;1818;-73
2023/08/14 04:58:56;;;;;;;;;;;;;;;20.13;100.00;95768.22;10540386;28;1871;-72
2023/08/14 05:04:01;;;;;;;;;;;;;;;20.38;100.00;95775.34;10533605;28;1847;-73
2023/08/14 05:09:04;;;;;;;;;;;;;;;20.22;100.00;95798.94;10536678;28;1906;-74
2023/08/14 05:14:28;;;;;;;;;;;;;;;20.16;100.00;95824.84;10535186;28;1887;-74
2023/08/14 05:19:32;;;;;;;;;;;;;;;20.16;100.00;95827.56;10537468;28;2138;-73
2023/08/14 05:24:38;;;;;;;;;;;;;;;20.00;100.00;95841.03;10554585;28;1885;-75
2023/08/14 05:29:43;;;;;;;;;;;;;;;19.80;100.00;95853.50;10538553;28;2729;-72
2023/08/14 05:34:48;;;;;;;;;;;;;;;19.73;100.00;95847.78;10536380;28;1914;-74
2023/08/14 05:39:51;;;;;;;;;;;;;;;20.08;100.00;95845.59;10519863;28;1869;-73
2023/08/14 05:44:57;;;;;;;;;;;;;;;20.24;100.00;95845.81;10540497;28;4481;-73
2023/08/14 05:50:05;;;;;;;;;;;;;;;20.62;100.00;95848.41;10534870;28;1991;-73
2023/08/14 05:55:09;;;;;;;;;;;;;;;21.17;100.00;95852.63;10539880;28;1721;-73
2023/08/14 06:00:14;;;;;;;;;;;;;;;22.30;100.00;95840.19;10535768;28;1888;-74
2023/08/14 06:05:18;;;;;;;;;;;;;;;22.49;100.00;95814.91;10541237;28;1863;-74
2023/08/14 06:10:21;;;;;;;;;;;;;;;22.99;100.00;95811.59;10533229;28;1967;-74
2023/08/14 06:15:25;;;;;;;;;;;;;;;22.62;100.00;95814.50;10536058;28;1906;-74
2023/08/14 06:20:28;;;;;;;;;;;;;;;22.88;100.00;95794.06;10536905;28;1808;-74
2023/08/14 06:25:33;;;;;;;;;;;;;;;23.21;100.00;95801.97;10537308;28;2293;-73
2023/08/14 06:30:42;;;;;;;;;;;;;;;22.65;100.00;95802.84;10537559;28;1985;-74
2023/08/14 06:35:48;;;;;;;;;;;;;;;23.29;100.00;95794.72;10536667;28;1897;-74
2023/08/14 06:40:53;;;;;;;;;;;;;;;23.54;100.00;95782.41;10537452;28;4550;-74
2023/08/14 06:45:57;;;;;;;;;;;;;;;24.22;100.00;95779.19;10534253;28;1870;-73
2023/08/14 06:51:00;;;;;;;;;;;;;;;24.71;100.00;95778.63;10541419;28;2004;-74
2023/08/14 06:56:05;;;;;;;;;;;;;;;25.04;100.00;95774.50;10542439;28;1899;-73
2023/08/14 07:01:12;;;;;;;;;;;;;;;25.49;100.00;95772.88;10559211;28;1893;-73
2023/08/14 07:06:22;;;;;;;;;;;;;;;25.52;100.00;95769.41;10534536;28;1925;-73
2023/08/14 07:11:38;;;;;;;;;;;;;;;25.94;100.00;95765.72;10533968;28;1940;-73
2023/08/14 07:16:45;;;;;;;;;;;;;;;26.26;100.00;95757.84;10537344;28;2177;-74
2023/08/14 07:21:52;;;;;;;;;;;;;;;26.62;100.00;95764.59;10536003;28;2397;-74
2023/08/14 07:27:05;;;;;;;;;;;;;;;26.46;100.00;95764.03;10538745;28;1960;-73
2023/08/14 07:32:11;;;;;;;;;;;;;;;26.57;100.00;95765.72;10540415;28;1973;-74
2023/08/14 07:37:15;;;;;;;;;;;;;;;26.65;100.00;95758.31;10529980;28;1807;-72
2023/08/14 07:42:18;;;;;;;;;;;;;;;26.93;100.00;95753.13;10535926;28;4525;-70
2023/08/14 07:47:23;;;;;;;;;;;;;;;26.21;100.00;95747.16;10534588;28;1799;-73
2023/08/14 07:52:28;;;;;;;;;;;;;;;26.68;100.00;95754.84;10532960;28;2102;-74
2023/08/14 07:57:35;;;;;;;;;;;;;;;26.56;100.00;95763.34;10534211;28;1862;-74
2023/08/14 08:02:42;;;;;;;;;;;;;;;26.49;100.00;95771.56;10536694;28;1919;-74
2023/08/14 08:07:52;;;;;;;;;;;;;;;25.72;100.00;95762.63;10548113;28;2109;-74
2023/08/14 08:12:59;;;;;;;;;;;;;;;25.26;100.00;95770.97;10533334;28;2144;-73
2023/08/14 08:18:03;;;;;;;;;;;;;;;25.19;100.00;95765.34;10528572;28;2393;-74
2023/08/14 08:23:07;;;;;;;;;;;;;;;26.20;100.00;95754.63;10534670;28;1875;-74
2023/08/14 08:28:12;;;;;;;;;;;;;;;26.83;100.00;95764.81;10549802;28;1788;-74
2023/08/14 08:33:16;;;;;;;;;;;;;;;27.72;100.00;95756.53;10546116;28;1914;-73
2023/08/14 08:38:29;;;;;;;;;;;;;;;28.45;100.00;95749.06;10530418;28;1951;-72
2023/08/14 08:43:31;;;;;;;;;;;;;;;28.67;100.00;95732.50;10529500;28;2203;-73
2023/08/14 08:48:35;;;;;;;;;;;;;;;28.37;100.00;95732.81;10536393;28;1830;-72
2023/08/14 08:53:46;;;;;;;;;;;;;;;28.48;100.00;95730.88;10527937;28;2024;-74
2023/08/14 08:58:51;;;;;;;;;;;;;;;28.71;100.00;95730.56;10533821;28;1974;-74
2023/08/14 09:03:57;;;;;;;;;;;;;;;28.10;100.00;95733.06;10537257;28;1951;-73
2023/08/14 09:09:03;;;;;;;;;;;;;;;28.50;100.00;95742.34;10534126;28;1845;-73
2023/08/14 09:14:06;;;;;;;;;;;;;;;28.73;100.00;95747.53;10532910;28;2477;-73
2023/08/14 09:19:10;;;;;;;;;;;;;;;28.95;100.00;95743.69;10527445;28;1897;-73
2023/08/14 09:24:21;;;;;;;;;;;;;;;29.10;100.00;95740.91;10525595;28;1979;-73
2023/08/14 09:29:24;;;;;;;;;;;;;;;29.60;100.00;95736.97;10529207;28;1919;-75
2023/08/14 09:34:30;;;;;;;;;;;;;;;29.53;100.00;95725.91;10535784;28;2101;-73
2023/08/14 09:39:35;;;;;;;;;;;;;;;30.30;100.00;95714.25;10531093;28;1968;-72
2023/08/14 09:44:39;;;;;;;;;;;;;;;29.89;100.00;95715.53;10532923;28;1946;-76
2023/08/14 09:49:44;;;;;;;;;;;;;;;29.92;100.00;95702.88;10533074;28;1897;-74
2023/08/14 09:54:50;;;;;;;;;;;;;;;29.68;100.00;95703.72;10537164;28;1973;-74
2023/08/14 09:59:53;;;;;;;;;;;;;;;29.27;100.00;95693.09;10538309;28;1898;-74
2023/08/14 10:04:56;;;;;;;;;;;;;;;29.95;100.00;95685.44;10549274;28;1828;-73
2023/08/14 10:10:04;;;;;;;;;;;;;;;29.71;100.00;95683.53;10533941;28;1886;-73
2023/08/14 10:15:11;;;;;;;;;;;;;;;29.86;98.86;95679.53;10515936;28;2090;-73
2023/08/14 10:20:15;;;;;;;;;;;;;;;29.93;99.81;95679.50;10535304;28;1811;-74
2023/08/14 10:25:19;;;;;;;;;;;;;;;30.59;95.74;95681.59;10535680;28;1890;-75
2023/08/14 10:30:25;;;;;;;;;;;;;;;30.50;100.00;95679.28;10527684;28;2020;-74
2023/08/14 10:35:32;;;;;;;;;;;;;;;29.84;100.00;95674.41;10537766;28;1842;-73
2023/08/14 10:40:36;;;;;;;;;;;;;;;29.48;100.00;95673.66;10536697;28;1973;-72
2023/08/14 10:45:40;;;;;;;;;;;;;;;29.33;100.00;95669.34;10549324;28;2124;-73
2023/08/14 10:50:45;;;;;;;;;;;;;;;29.76;97.39;95663.72;10528447;28;1973;-73
2023/08/14 10:55:48;;;;;;;;;;;;;;;29.47;94.48;95663.00;10535444;28;1855;-74
2023/08/14 11:00:58;;;;;;;;;;;;;;;30.11;87.92;95658.09;10527770;28;1886;-74
2023/08/14 11:06:02;;;;;;;;;;;;;;;30.07;90.30;95657.28;10532968;28;2447;-73
2023/08/14 11:11:06;;;;;;;;;;;;;;;30.45;88.78;95648.41;10540073;28;1918;-73
2023/08/14 11:16:10;;;;;;;;;;;;;;;31.28;74.74;95649.41;10538246;28;1823;-74
2023/08/14 11:21:14;;;;;;;;;;;;;;;32.13;68.29;95651.28;10535877;28;1879;-75
2023/08/14 11:26:35;;;;;;;;;;;;;;;31.76;78.34;95660.41;10547774;28;1823;-73
2023/08/14 11:31:40;;;;;;;;;;;;;;;31.48;86.10;95650.38;10533400;28;2204;-76
2023/08/14 11:36:52;;;;;;;;;;;;;;;30.42;87.37;95655.56;10535785;28;1822;-73
2023/08/14 11:42:12;;;;;;;;;;;;;;;30.35;80.59;95644.50;10535777;28;1885;-74
2023/08/14 11:47:15;;;;;;;;;;;;;;;30.03;71.05;95639.88;10531131;28;1918;-73
2023/08/14 11:52:20;;;;;;;;;;;;;;;30.17;82.90;95639.06;10531953;28;1910;-74
2023/08/14 11:57:27;;;;;;;;;;;;;;;29.83;84.61;95647.06;10531879;28;2098;-74
2023/08/14 12:02:35;;;;;;;;;;;;;;;30.34;86.77;95648.44;10546573;28;2476;-73
2023/08/14 12:07:43;;;;;;;;;;;;;;;30.17;89.62;95641.03;10532811;28;1865;-74
2023/08/14 12:12:46;;;;;;;;;;;;;;;30.70;89.38;95629.63;10527393;28;1906;-73
2023/08/14 12:17:59;;;;;;;;;;;;;;;30.44;86.37;95633.75;10534185;28;2198;-73
2023/08/14 12:23:08;;;;;;;;;;;;;;;30.21;83.99;95619.59;10535899;28;1943;-73
2023/08/14 12:28:12;;;;;;;;;;;;;;;30.64;76.08;95607.03;10533345;28;1847;-73
2023/08/14 12:33:18;;;;;;;;;;;;;;;30.46;81.72;95605.59;10533049;28;1914;-74
2023/08/14 12:38:21;;;;;;;;;;;;;;;30.25;89.50;95607.31;10532853;28;1846;-73
2023/08/14 12:43:25;;;;;;;;;;;;;;;30.92;78.30;95597.75;10531195;28;1949;-72
2023/08/14 12:48:43;;;;;;;;;;;;;;;31.03;86.08;95600.41;10530577;28;1879;-74
2023/08/14 12:53:49;;;;;;;;;;;;;;;30.62;89.59;95601.13;10532436;28;2024;-73
2023/08/14 12:58:53;;;;;;;;;;;;;;;30.62;83.28;95597.56;10527320;28;2377;-75
2023/08/14 13:03:59;;;;;;;;;;;;;;;30.83;82.39;95608.50;10530696;28;2005;-74
2023/08/14 13:09:10;;;;;;;;;;;;;;;30.87;82.61;95603.72;10527774;28;1970;-73
2023/08/14 13:14:16;;;;;;;;;;;;;;;30.89;83.25;95606.09;10529792;28;1965;-73
2023/08/14 13:19:20;;;;;;;;;;;;;;;31.10;83.46;95597.56;10527357;28;1903;-73
2023/08/14 13:24:28;;;;;;;;;;;;;;;30.82;88.29;95592.28;10530409;28;2109;-72
2023/08/14 13:29:33;;;;;;;;;;;;;;;31.22;87.06;95585.94;10540551;28;1862;-73
2023/08/14 13:34:37;;;;;;;;;;;;;;;30.93;96.35;95587.44;10540086;28;2008;-74
2023/08/14 13:39:41;;;;;;;;;;;;;;;31.02;97.30;95586.94;10544268;27;1859;-74
2023/08/14 13:44:46;;;;;;;;;;;;;;;30.68;97.55;95585.66;10529896;28;2070;-74
2023/08/14 13:49:50;;;;;;;;;;;;;;;30.77;99.23;95592.72;10542783;28;1946;-73
2023/08/14 13:54:55;;;;;;;;;;;;;;;30.77;100.00;95592.72;10534705;28;2170;-74
2023/08/14 14:00:03;;;;;;;;;;;;;;;30.24;100.00;95600.19;10539569;28;1942;-74
2023/08/14 14:05:06;;;;;;;;;;;;;;;30.56;100.00;95593.66;10536526;28;1922;-73
2023/08/14 14:10:10;;;;;;;;;;;;;;;31.03;100.00;95597.63;10536060;28;2073;-76
2023/08/14 14:15:15;;;;;;;;;;;;;;;30.60;100.00;95594.38;10535551;28;1975;-73
2023/08/14 14:20:18;;;;;;;;;;;;;;;30.77;99.39;95585.19;10535548;28;2194;-73
2023/08/14 14:25:20;;;;;;;;;;;;;;;30.79;99.17;95581.97;10535186;28;1887;-72
2023/08/14 14:30:27;;;;;;;;;;;;;;;31.16;98.22;95573.72;10536330;28;1925;-73
2023/08/14 14:35:32;;;;;;;;;;;;;;;31.13;100.00;95569.00;10533075;28;1988;-74
2023/08/14 14:40:36;;;;;;;;;;;;;;;31.16;98.98;95579.25;10536136;28;2111;-73
2023/08/14 14:45:39;;;;;;;;;;;;;;;31.03;100.00;95577.41;10532685;28;1918;-73
2023/08/14 14:50:44;;;;;;;;;;;;;;;30.96;100.00;95572.72;10533613;28;1846;-72
2023/08/14 14:55:50;;;;;;;;;;;;;;;31.34;97.60;95556.09;10548299;28;1955;-74
2023/08/14 15:00:54;;;;;;;;;;;;;;;31.00;99.66;95572.69;10530816;28;1831;-72
2023/08/14 15:05:59;;;;;;;;;;;;;;;30.92;99.31;95569.19;10547344;28;1878;-74
2023/08/14 15:11:05;;;;;;;;;;;;;;;30.81;99.91;95566.53;10532463;28;1905;-71
2023/08/14 15:16:10;;;;;;;;;;;;;;;30.90;99.70;95563.25;10529076;28;1955;-73
2023/08/14 15:21:13;;;;;;;;;;;;;;;31.15;95.29;95557.47;10515353;28;2167;-73
2023/08/14 15:26:16;;;;;;;;;;;;;;;31.03;94.79;95553.22;10536201;28;1827;-72
2023/08/14 15:31:19;;;;;;;;;;;;;;;30.95;96.17;95543.41;10535661;28;1839;-73
2023/08/14 15:36:23;;;;;;;;;;;;;;;30.65;96.34;95539.25;10534661;28;1975;-73
2023/08/14 15:41:26;;;;;;;;;;;;;;;30.64;96.27;95537.69;10532403;28;2174;-73
2023/08/14 15:46:31;;;;;;;;;;;;;;;30.62;95.15;95534.56;10519779;28;2301;-73
2023/08/14 15:51:34;;;;;;;;;;;;;;;30.42;96.64;95545.41;10527123;28;2109;-73
2023/08/14 15:56:38;;;;;;;;;;;;;;;30.36;96.70;95541.50;10547783;28;1978;-73
2023/08/14 16:01:45;;;;;;;;;;;;;;;30.49;96.37;95549.31;10531443;28;2050;-73
2023/08/14 16:06:52;;;;;;;;;;;;;;;30.37;94.28;95547.81;10525504;28;1882;-74
2023/08/14 16:11:59;;;;;;;;;;;;;;;30.19;96.85;95544.38;10531559;28;2074;-74
2023/08/14 16:17:03;;;;;;;;;;;;;;;30.06;98.29;95542.06;10532709;28;1926;-73
2023/08/14 16:22:09;;;;;;;;;;;;;;;29.95;98.57;95544.09;10533000;28;1882;-74
2023/08/14 16:27:15;;;;;;;;;;;;;;;29.88;97.27;95544.13;10547329;28;2101;-73
2023/08/14 16:32:18;;;;;;;;;;;;;;;29.78;96.52;95533.91;10531743;28;2057;-73
2023/08/14 16:37:23;;;;;;;;;;;;;;;29.68;94.21;95540.28;10529922;28;1920;-75
2023/08/14 16:42:26;;;;;;;;;;;;;;;29.64;93.53;95545.06;10532918;28;2383;-74
2023/08/14 16:47:30;;;;;;;;;;;;;;;29.58;92.18;95536.38;10543911;28;2107;-75
2023/08/14 16:52:34;;;;;;;;;;;;;;;29.51;92.61;95534.41;10525694;28;1985;-74
2023/08/14 16:57:39;;;;;;;;;;;;;;;29.46;94.80;95550.66;10522975;28;1871;-74
2023/08/14 17:02:43;;;;;;;;;;;;;;;29.44;96.49;95547.47;10535338;28;1919;-74
2023/08/14 17:07:51;;;;;;;;;;;;;;;29.36;97.90;95560.56;10535491;28;1898;-71
2023/08/14 17:12:57;;;;;;;;;;;;;;;29.25;98.84;95554.25;10523515;28;2120;-73
2023/08/14 17:18:01;;;;;;;;;;;;;;;29.20;98.81;95549.13;10538917;28;1966;-73
2023/08/14 17:23:06;;;;;;;;;;;;;;;29.07;98.67;95562.59;10540434;28;1917;-74
2023/08/14 17:28:10;;;;;;;;;;;;;;;29.01;97.78;95559.47;10540288;28;1885;-74
2023/08/14 17:33:13;;;;;;;;;;;;;;;28.93;98.75;95560.66;10538639;28;2082;-74
2023/08/14 17:38:35;;;;;;;;;;;;;;;28.82;100.00;95562.63;10532172;28;2425;-74
2023/08/14 17:43:39;;;;;;;;;;;;;;;28.72;100.00;95568.94;10553622;27;2255;-73
2023/08/14 17:48:46;;;;;;;;;;;;;;;28.66;100.00;95565.00;10535765;28;1834;-73
2023/08/14 17:53:52;;;;;;;;;;;;;;;28.43;100.00;95557.88;10530395;28;2130;-74
2023/08/14 17:58:55;;;;;;;;;;;;;;;28.27;100.00;95555.47;10532342;28;2015;-73
2023/08/14 18:03:59;;;;;;;;;;;;;;;28.16;100.00;95556.63;10536377;28;1961;-74
2023/08/14 18:09:05;;;;;;;;;;;;;;;27.96;100.00;95558.97;10533760;28;1854;-73
2023/08/14 18:14:09;;;;;;;;;;;;;;;27.72;100.00;95552.19;10535047;28;2161;-73
2023/08/14 18:19:16;;;;;;;;;;;;;;;27.62;100.00;95561.22;10540331;28;1910;-74
2023/08/14 18:24:27;;;;;;;;;;;;;;;27.50;100.00;95567.09;10528116;28;1896;-74
2023/08/14 18:29:35;;;;;;;;;;;;;;;27.23;100.00;95575.63;10527841;28;1886;-73
2023/08/14 18:34:39;;;;;;;;;;;;;;;27.04;100.00;95568.41;10548033;28;2234;-73
2023/08/14 18:39:43;;;;;;;;;;;;;;;26.80;100.00;95582.81;10533093;28;1936;-73
2023/08/14 18:44:47;;;;;;;;;;;;;;;26.60;100.00;95576.75;10533279;28;4457;-73
2023/08/14 18:49:52;;;;;;;;;;;;;;;26.44;100.00;95584.47;10532534;28;1831;-73
2023/08/14 18:55:00;;;;;;;;;;;;;;;26.17;100.00;95592.84;10536024;28;1906;-75
2023/08/14 19:00:04;;;;;;;;;;;;;;;26.02;100.00;95593.88;10519537;28;1870;-73
2023/08/14 19:05:08;;;;;;;;;;;;;;;25.83;100.00;95600.34;10537602;28;1772;-73
2023/08/14 19:10:11;;;;;;;;;;;;;;;25.71;100.00;95612.38;10531099;28;1953;-75
2023/08/14 19:15:16;;;;;;;;;;;;;;;25.66;100.00;95614.69;10528310;28;2302;-73
2023/08/14 19:20:21;;;;;;;;;;;;;;;25.53;100.00;95619.63;10531014;28;1839;-73
2023/08/14 19:25:24;;;;;;;;;;;;;;;25.39;100.00;95619.44;10545538;28;2109;-73
2023/08/14 19:30:29;;;;;;;;;;;;;;;25.33;100.00;95619.78;10535666;28;2439;-74
2023/08/14 19:35:33;;;;;;;;;;;;;;;25.29;100.00;95618.13;10532775;28;1985;-73
2023/08/14 19:40:36;;;;;;;;;;;;;;;25.20;100.00;95628.63;10535628;28;4666;-74
2023/08/14 19:45:40;;;;;;;;;;;;;;;25.10;100.00;95624.53;10550062;28;2070;-72
2023/08/14 19:50:44;;;;;;;;;;;;;;;25.01;100.00;95621.25;10531228;28;2033;-73
2023/08/14 19:55:49;;;;;;;;;;;;;;;24.89;100.00;95625.00;10530912;28;1968;-73
2023/08/14 20:00:52;;;;;;;;;;;;;;;24.79;100.00;95618.16;10543094;28;2142;-73
2023/08/14 20:05:59;;;;;;;;;;;;;;;24.67;100.00;95629.34;10528933;28;1898;-74
2023/08/14 20:11:03;;;;;;;;;;;;;;;24.60;100.00;95633.94;10533609;28;1827;-74
2023/08/14 20:16:06;;;;;;;;;;;;;;;24.57;100.00;95634.66;10532616;28;2154;-74
2023/08/14 20:21:10;;;;;;;;;;;;;;;24.51;100.00;95636.94;10529098;28;1906;-74
2023/08/14 20:26:15;;;;;;;;;;;;;;;24.49;100.00;95633.72;10531050;28;2010;-75
2023/08/14 20:31:19;;;;;;;;;;;;;;;24.49;100.00;95639.22;10540950;28;1935;-73
2023/08/14 20:36:27;;;;;;;;;;;;;;;24.35;100.00;95628.00;10530616;28;2141;-72
2023/08/14 20:41:38;;;;;;;;;;;;;;;24.30;100.00;95631.00;10524348;28;4492;-72
2023/08/14 20:46:44;;;;;;;;;;;;;;;24.19;100.00;95637.13;10531711;28;1887;-73
2023/08/14 20:51:49;;;;;;;;;;;;;;;24.08;100.00;95635.31;10529876;28;1878;-73
2023/08/14 20:56:54;;;;;;;;;;;;;;;24.00;100.00;95639.91;10523925;28;2016;-73
2023/08/14 21:02:00;;;;;;;;;;;;;;;23.94;100.00;95625.66;10547173;28;1875;-73
2023/08/14 21:07:08;;;;;;;;;;;;;;;23.81;100.00;95637.16;10527098;28;1831;-74
2023/08/14 21:12:13;;;;;;;;;;;;;;;23.70;100.00;95634.19;10543342;28;1890;-77
2023/08/14 21:17:22;;;;;;;;;;;;;;;23.71;100.00;95628.34;10535625;28;2054;-75
2023/08/14 21:22:26;;;;;;;;;;;;;;;23.66;100.00;95625.88;10532628;28;2441;-75
2023/08/14 21:27:29;;;;;;;;;;;;;;;23.62;100.00;95636.00;10545037;28;2153;-74
2023/08/14 21:32:34;;;;;;;;;;;;;;;23.54;100.00;95623.28;10531813;28;2167;-72
2023/08/14 21:37:43;;;;;;;;;;;;;;;23.45;100.00;95626.22;10529685;28;1909;-75
2023/08/14 21:42:48;;;;;;;;;;;;;;;23.43;100.00;95617.56;10525744;28;4722;-73
2023/08/14 21:47:51;;;;;;;;;;;;;;;23.37;100.00;95623.69;10547354;28;1879;-72
2023/08/14 21:52:54;;;;;;;;;;;;;;;23.32;100.00;95618.47;10537960;28;1859;-73
2023/08/14 21:58:03;;;;;;;;;;;;;;;23.26;100.00;95617.16;10535601;28;1914;-73
2023/08/14 22:03:07;;;;;;;;;;;;;;;23.12;100.00;95618.44;10541662;28;1870;-73
2023/08/14 22:08:11;;;;;;;;;;;;;;;23.10;100.00;95623.50;10536470;28;1902;-73
2023/08/14 22:13:15;;;;;;;;;;;;;;;23.03;100.00;95626.09;10554802;28;1981;-73
2023/08/14 22:18:20;;;;;;;;;;;;;;;23.01;100.00;95622.88;10536584;27;1985;-72
2023/08/14 22:23:25;;;;;;;;;;;;;;;22.91;100.00;95628.94;10529837;28;2075;-73
2023/08/14 22:28:33;;;;;;;;;;;;;;;22.94;100.00;95628.22;10537543;28;1958;-72
2023/08/14 22:33:58;;;;;;;;;;;;;;;22.90;100.00;95628.16;10528213;28;2001;-73
2023/08/14 22:39:02;;;;;;;;;;;;;;;22.86;100.00;95626.44;10530293;28;1919;-74
2023/08/14 22:44:09;;;;;;;;;;;;;;;22.75;100.00;95630.84;10532760;28;4607;-72
2023/08/14 22:49:17;;;;;;;;;;;;;;;22.61;100.00;95625.84;10534435;28;1954;-73
2023/08/14 22:54:22;;;;;;;;;;;;;;;22.58;100.00;95626.53;10530223;28;2036;-73
2023/08/14 22:59:25;;;;;;;;;;;;;;;22.51;100.00;95635.34;10557053;27;2109;-74
2023/08/14 23:04:29;;;;;;;;;;;;;;;22.47;100.00;95639.97;10537515;28;2137;-75
2023/08/14 23:09:31;;;;;;;;;;;;;;;22.52;100.00;95639.72;10535080;28;1851;-74
2023/08/14 23:14:34;;;;;;;;;;;;;;;22.46;100.00;95641.13;10549637;27;1968;-74
2023/08/14 23:19:37;;;;;;;;;;;;;;;22.41;100.00;95630.44;10514814;28;2055;-75
2023/08/14 23:24:42;;;;;;;;;;;;;;;22.32;100.00;95638.00;10531052;28;2278;-73
2023/08/14 23:29:45;;;;;;;;;;;;;;;22.27;100.00;95641.81;10537222;28;1988;-74
2023/08/14 23:34:52;;;;;;;;;;;;;;;22.23;100.00;95638.19;10532323;28;1910;-73
2023/08/14 23:39:57;;;;;;;;;;;;;;;22.24;100.00;95633.50;10530059;28;1924;-72
2023/08/14 23:45:01;;;;;;;;;;;;;;;22.19;100.00;95639.22;10526842;28;4362;-73
2023/08/14 23:50:04;;;;;;;;;;;;;;;22.19;100.00;95644.69;10530849;28;2101;-74
2023/08/14 23:55:08;;;;;;;;;;;;;;;22.07;100.00;95648.25;10541973;27;1917;-73
